Alma, Georgia
Current Conditions -  °F | °C
As of 3:53 PM on Wednesday 17 Dec 2014 (Local Time) from KAMG Reporting Station
Clear Clear  
Wind Chill: 63°   Ceiling: Unl
Heat Index: 63°   Visibility: 10mi
Dew Point: 39°   Wind: 6mph
Humidity: 41%   Direction: 290°WNW
Pressure: 30.1"   Gusts: NA
Location:  31.54°N, 82.46°W
Report Text: KAMG 172053Z AUTO 29005KT 10SM CLR 17/04 A3010 RMK AO2 SLP193 T01720039 56014
Loading
Personal Weather Stations






























Interactive Weather Map New forecast layout! Learn more

10-Day Weather Forecast

Advertisements
Track Severe Weather on mobile